Weather observations for the past three days for
Big Sandy Regional Airport
Imperial (Metric)
Date Time (edt) Wind (mph) Vis. (mi.) Weather Sky Cond. Temperature (ºF) Relative Humidity Wind Chill (°F) Heat Index (°F) Pressure Precipitation (in)
Air Dwpt 6 hour altimeter (in) sea level (mb) 1 hr 3 hr 6 hr
Max. Min.
09 05:15 SW 3 10.00 Overcast OVC120 54.5 37.8 53% 29.85 0.0
09 04:55 Calm 10.00 Overcast OVC120 54.7 37.6 53% 29.85 0.0
09 04:35 SW 3 10.00 Mostly Cloudy BKN120 54.5 36.7 51% 29.85 0.0
09 04:15 Calm 10.00 Fair CLR 52.3 36.7 55% 29.85 0.0
09 03:55 Calm 10.00 Fair CLR 53.4 36.9 54% 29.85 0.0
09 03:35 Calm 10.00 Fair CLR 53.8 36.5 52% 29.85 0.0
09 03:15 Calm 10.00 Fair CLR 54.5 36.1 50% 29.86 0.0
09 02:55 S 3 10.00 Fair CLR 54.3 36.9 52% 29.86 0.0
09 02:35 S 3 10.00 Fair CLR 54.5 36.5 51% 29.86 0.0
09 02:15 Calm 10.00 Fair CLR 54.5 36.1 50% 29.86 0.0
09 01:55 Calm 10.00 Fair CLR 54.5 36.5 66.6 54.1 51% 29.87 0.0
09 01:35 Calm 10.00 Fair CLR 55 36.5 50% 29.87 0.0
09 01:15 S 3 10.00 Fair CLR 55.2 36.5 50% 29.87 0.0
09 00:55 Calm 10.00 Fair CLR 54.7 36.7 51% 29.86 0.0
09 00:35 Calm 10.00 Fair CLR 54.7 36.5 50% 29.86 0.0
09 00:15 Calm 10.00 Fair CLR 56.3 36 47% 29.87 0.0
08 23:55 Calm 10.00 Fair CLR 57.7 36.3 45% 29.88 0.0
08 23:35 Calm 10.00 Fair CLR 58.6 36.3 43% 29.88 0.0
08 23:15 Calm 10.00 Fair CLR 58.8 36.9 44% 29.88 0.0
08 22:55 Calm 10.00 Fair CLR 58.8 36.9 44% 29.89 0.0
08 22:35 Calm 10.00 Fair CLR 59 37.4 45% 29.9 0.0
08 22:15 Calm 10.00 Partly Cloudy SCT110 59.2 36 42% 29.9 0.0
08 21:55 Calm 10.00 Mostly Cloudy BKN110 61 36.1 40% 29.9 0.0
08 21:35 Calm 10.00 Mostly Cloudy BKN110 59.7 36.9 43% 29.89 0.0
08 21:15 Calm 10.00 Fair CLR 63.3 35.1 35% 29.89 0.0
08 20:55 Calm 10.00 Fair CLR 62.8 35.1 36% 29.89 0.0
08 20:35 Calm 10.00 Fair CLR 64.2 35.2 34% 29.88 0.0
08 20:15 SW 3 10.00 Fair CLR 65.3 34.7 32% 29.89 0.0
08 19:55 Calm 10.00 Fair CLR 66.7 35.1 31% 29.89 0.0
08 19:35 SW 5 10.00 Fair CLR 68 34.5 29% 29.89 0.0
08 18:55 SW 3 10.00 Fair CLR 68.9 33.4 27% 29.9 0.0
08 18:35 W 6 10.00 Fair CLR 69.6 32.9 26% 29.9 0.0
08 17:35 Calm 10.00 Fair CLR 69.3 31.8 25% 29.89 0.0
08 17:15 S 14 G 20 10.00 Fair CLR 70.3 32.2 24% 29.9 0.0
08 16:55 SW 6 10.00 Fair CLR 69.8 33.1 26% 29.91 0.0
08 16:35 SW 10 10.00 Fair CLR 69.4 32.9 26% 29.91 0.0
08 16:15 SW 8 10.00 Fair CLR 69.6 34.3 27% 29.92 0.0
08 15:35 SW 7 10.00 Fair CLR 68.2 34.3 29% 29.95 0.0
08 14:35 SW 6 10.00 Fair CLR 0 0 0% 29.98 0.0
08 13:35 SW 7 10.00 Fair CLR 0 0 0% 30 0.0
08 12:55 SW 3 10.00 Fair CLR 64.8 33.8 32% 30.02 0.0
08 12:35 SW 6 10.00 Fair CLR 63.7 35.2 35% 30.04 0.0
08 12:15 SW 5 10.00 Fair CLR 63.5 34.9 35% 30.05 0.0
08 11:50 SW 5 10.00 Fair CLR 61.7 34.2 36% 30.05 0.0
08 11:35 SW 6 10.00 Fair CLR 61.5 33.8 35% 30.06 0.0
08 10:55 SW 5 10.00 Fair CLR 58.6 37.9 46% 30.05 0.0
08 10:35 SW 3 10.00 Fair CLR 57 37.8 49% 30.05 0.0
08 09:35 Calm 10.00 Fair CLR 52.3 38.8 60% 30.05 0.0
08 09:15 Calm 10.00 Fair CLR 50 38.3 64% 30.05 0.0
08 08:55 S 3 10.00 Fair CLR 48.6 37.2 65% 30.06 0.0
08 08:35 SW 5 10.00 Fair CLR 47.3 36.5 66% 46 30.06 0.0
08 06:35 SW 3 10.00 Fair CLR 41.4 36.1 82% 30.02 0.0
08 06:15 S 3 10.00 Fair CLR 41.4 36.5 83% 30.02 0.0
08 05:55 SW 3 10.00 Fair CLR 41.9 36.5 81% 30.02 0.0
08 05:35 SW 3 10.00 Fair CLR 41.5 36.5 82% 30.02 0.0
08 05:15 SW 3 10.00 Fair CLR 42.1 36.5 81% 30.02 0.0
08 04:55 Calm 10.00 Fair CLR 40.6 36.9 86% 30.02 0.0
08 04:35 SW 3 10.00 Fair CLR 41.5 36.5 82% 30.01 0.0
08 04:15 Calm 10.00 Fair CLR 42.1 36.5 81% 30.01 0.0
08 03:55 Calm 10.00 Fair CLR 41 36.5 84% 30.01 0.0
08 03:35 Calm 10.00 Fair CLR 41.2 36.3 83% 30.01 0.0
08 03:15 W 3 10.00 Fair CLR 42.3 36.3 80% 30.01 0.0
08 02:55 Calm 10.00 Fair CLR 42.1 35.8 78% 30.01 0.0
08 02:35 Calm 10.00 Fair CLR 41.9 37.4 84% 30.01 0.0
08 02:15 Calm 10.00 Fair CLR 42.4 36.7 80% 30.01 0.0
08 01:55 Calm 10.00 Fair CLR 43.9 35.8 58.1 43.2 73% 30.02 0.0
08 01:35 Calm 10.00 Fair CLR 43.5 35.8 74% 30.02 0.0
08 01:15 Calm 10.00 Fair CLR 44.2 36.7 75% 30.01 0.0
08 00:55 Calm 10.00 Fair CLR 44.2 36.9 75% 30.01 0.0
08 00:35 Calm 10.00 Fair CLR 45 34.3 66% 30.01 0.0
08 00:15 Calm 10.00 Fair CLR 45.5 34.7 66% 30.01 0.0
07 23:55 Calm 10.00 Fair CLR 47.1 35.4 64% 30.01 0.0
07 23:35 Calm 10.00 Fair CLR 48.2 35.8 62% 30.01 0.0
07 23:15 Calm 10.00 Fair CLR 48.6 33.4 56% 30.01 0.0
07 22:55 Calm 10.00 Fair CLR 51.3 32.2 48% 30 0.0
07 22:35 Calm 10.00 Fair CLR 50.2 33.1 52% 30 0.0
07 22:15 Calm 10.00 Fair CLR 52 33.3 49% 29.99 0.0
07 21:55 Calm 10.00 Fair CLR 51.4 34.2 52% 29.98 0.0
07 21:35 Calm 10.00 Fair CLR 52.9 33.4 48% 29.97 0.0
07 21:15 Calm 10.00 Fair CLR 52.7 33.4 48% 29.96 0.0
07 20:55 Calm 10.00 Partly Cloudy SCT065 54.5 33.6 45% 29.96 0.0
07 20:35 Calm 10.00 Partly Cloudy SCT065 55.4 34 45% 29.96 0.0
07 20:15 Calm 10.00 Fair CLR 56.5 33.8 43% 29.95 0.0
07 19:55 Calm 10.00 Fair CLR 58.3 33.4 39% 29.95 0.0
07 19:35 W 5 10.00 Partly Cloudy SCT065 59.7 33.4 37% 29.94 0.0
07 19:15 NW 3 10.00 Partly Cloudy SCT065 60.8 33.1 35% 29.93 0.0
07 18:55 NW 5 10.00 Partly Cloudy SCT065 61.3 32.7 34% 29.94 0.0
07 18:35 W 7 10.00 Mostly Cloudy BKN065 62.4 33.8 34% 29.93 0.0
07 18:15 N 5 10.00 Mostly Cloudy BKN065 62.6 35.4 36% 29.93 0.0
07 17:55 W 8 10.00 Mostly Cloudy BKN065 62.4 35.1 36% 29.92 0.0
07 17:35 NW 5 10.00 Mostly Cloudy BKN065 63 34.9 35% 29.92 0.0
07 17:15 W 7 10.00 Partly Cloudy SCT065 64 35.8 35% 29.91 0.0
07 16:55 NW 5 10.00 Fair CLR 62.6 35.2 36% 29.91 0.0
07 16:40 N 5 10.00 Partly Cloudy SCT070 0 0 0% 29.91 0.0
07 13:30 Calm 10.00 Overcast SCT037 BKN045 OVC050 56.5 41.2 57% 29.95 0.0
07 11:50 Calm 10.00 Mostly Cloudy BKN040 BKN050 0 0 0% 29.97 0.0
07 09:35 NE 3 10.00 Overcast OVC050 52.3 45.1 77% 29.97 0.0 0.01
07 09:15 Calm 10.00 Overcast OVC050 51.6 46.2 82% 29.97 0.0
07 08:55 Calm 10.00 Overcast BKN050 OVC055 50.9 46.9 86% 29.97 0.0
07 08:35 Calm 10.00 Overcast SCT050 OVC055 50 46 86% 29.97 0.0
07 08:15 Calm 10.00 Overcast BKN049 OVC055 49.3 46.4 90% 29.97 0.0
07 07:55 Calm 10.00 Overcast BKN046 OVC055 48.9 47.1 51.1 48.2 94% 29.97 0.0
07 07:35 Calm 10.00 Overcast SCT046 OVC055 48.9 48.2 97% 29.96 0.0
07 07:15 Calm 10.00 Overcast OVC044 48.4 47.5 97% 29.96 0.0
07 06:55 Calm 0.50 Fog SCT001 OVC042 48.4 47.5 97% 29.96 0.0
07 06:35 Calm 10.00 Overcast OVC042 48.4 46.6 94% 29.95 0.0
07 06:15 Calm 10.00 Overcast OVC040 48.6 46 91% 29.95 0.0
07 05:55 Calm 10.00 Overcast OVC040 48.2 47.3 97% 29.95 0.0
07 05:35 Calm 10.00 Overcast OVC038 48.7 48 97% 29.94 0.0
07 05:15 Calm 10.00 Overcast OVC038 49.1 48.2 97% 29.95 0.0
07 04:55 Calm 10.00 Overcast OVC038 49.1 48.2 97% 29.95 0.0
07 04:35 Calm 10.00 Overcast OVC036 49.1 47.8 95% 29.95 0.0
07 04:15 Calm 10.00 Overcast OVC034 49.1 48.2 97% 29.94 0.0
07 03:55 Calm 7.00 Overcast OVC034 49.3 48.4 97% 29.94 0.0
07 03:15 Calm 10.00 Overcast OVC032 49.3 48.4 97% 29.95 0.0
07 02:55 Calm 10.00 Overcast OVC032 49.5 48.7 97% 29.95 0.0
07 02:35 Calm 10.00 Overcast OVC032 50 49.1 97% 29.95 0.0
07 02:15 Calm 10.00 Overcast SCT019 OVC032 50.4 49.6 97% 29.95 0.0
07 01:55 NE 3 10.00 Overcast SCT009 BKN019 OVC032 51.3 50.7 53.6 51.3 98% 29.96 0.0 0.02
07 01:35 Calm 10.00 Overcast BKN007 OVC012 52.2 51.6 98% 29.96 0.0
07 01:15 N 3 10.00 Overcast SCT003 BKN008 OVC032 52.7 52 97% 29.95 0.0
07 00:55 Calm 10.00 Overcast BKN003 BKN007 OVC034 52.9 52.3 98% 29.95 0.0
07 00:35 Calm 7.00 Overcast BKN001 BKN027 OVC034 52.9 52.3 98% 29.95 0.0
07 00:15 Calm 10.00 Overcast BKN001 OVC034 52.9 52.3 98% 29.96 0.0
06 23:35 Calm 7.00 Overcast BKN003 OVC030 53.2 52.7 98% 29.96 0.0
06 23:15 Calm 10.00 Overcast BKN003 OVC030 53.2 52.7 98% 29.95 0.0
06 22:55 Calm 10.00 Overcast OVC003 53.1 52.7 99% 29.95 0.0 0.02
06 22:35 Calm 10.00 Overcast BKN003 OVC007 53.1 52.7 99% 29.95 0.0
06 22:15 Calm 4.00 Light Drizzle BKN003 OVC008 53.1 52.7 99% 29.94 0.0
06 21:55 Calm 5.00 Drizzle BKN003 OVC008 53.2 52.7 98% 29.95 0.0 0.01
06 21:35 NW 3 3.00 Drizzle OVC003 53.6 52.9 97% 29.99 0.0 0.01
06 21:15 Calm 7.00 Overcast OVC003 53.4 52.9 98% 29.96 0.0
06 20:55 Calm 7.00 Overcast BKN003 BKN006 OVC020 53.6 52.9 97% 29.93 0.0 0.01
06 20:35 Calm 5.00 Fog/Mist BKN003 BKN006 OVC015 53.6 52.9 97% 29.93 0.0 0.01
06 20:15 Calm 3.00 Drizzle BKN003 OVC006 53.6 52.9 97% 29.92 0.0 0.01
06 19:55 Calm 4.00 Rain BKN003 OVC008 53.6 52.9 55.6 53.2 97% 29.92 0.0 0.04
06 19:35 Calm 4.00 Fog/Mist BKN003 BKN008 OVC018 53.6 53.1 98% 29.91 0.0
06 19:15 Calm 10.00 Overcast SCT003 BKN012 OVC018 53.6 52.9 97% 29.92 0.0
06 18:55 Calm 3.00 Fog/Mist BKN013 OVC018 53.6 52.9 97% 29.91 0.0
06 18:35 Calm 2.50 Light Rain SCT006 BKN016 OVC035 53.8 52.9 97% 29.92 0.0
06 18:15 Calm 7.00 Light Drizzle SCT021 SCT030 OVC035 53.6 52.5 96% 29.93 0.0
06 17:55 Calm 4.00 Light Drizzle SCT006 SCT014 OVC035 53.6 52.5 96% 29.9 0.0 0.02
06 17:35 Calm 7.00 Light Drizzle SCT006 BKN014 OVC024 53.8 52.7 96% 29.91 0.0 0.02
06 16:55 N 3 3.00 Drizzle OVC009 54.3 53.1 96% 29.91 0.0 0.01 0.02
06 16:35 Calm 3.00 Drizzle OVC009 54.3 52.9 95% 29.91 0.0
06 16:15 Calm 4.00 Drizzle OVC007 54.5 52.7 94% 29.91 0.0
06 15:55 N 3 5.00 Drizzle BKN007 OVC010 54.9 53.6 96% 29.91 0.0 0.01
06 15:35 NW 6 5.00 Drizzle BKN007 OVC016 55.6 54.1 95% 29.91 0.0 0.01
06 15:15 Calm 4.00 Drizzle OVC005 55 53.8 96% 29.9 0.0 0.01
06 14:55 Calm 3.00 Drizzle BKN007 OVC018 54.7 53.2 95% 29.9 0.0
06 14:35 NW 5 7.00 Drizzle BKN007 BKN011 OVC018 54.5 52.9 94% 29.9 0.0
06 14:15 N 7 4.00 Drizzle BKN007 OVC011 54.7 53.1 94% 29.89 0.0
06 13:55 N 5 5.00 Drizzle OVC005 54.9 53.6 63 54.9 96% 29.89 0.0 0.02 0.06
06 13:35 N 3 7.00 Overcast BKN005 OVC012 56.3 54.7 94% 29.89 0.0 0.02
06 13:15 NW 5 5.00 Light Rain BKN005 BKN012 OVC019 56.1 54.7 95% 29.89 0.0 0.02
06 12:55 N 8 4.00 Rain BKN005 OVC009 56.1 54.9 96% 29.88 0.0 0.03
06 12:35 NW 8 5.00 Drizzle OVC003 56.7 55.6 96% 29.88 0.0 0.01
06 12:15 N 10 2.50 Heavy Rain BKN003 OVC009 59.7 58.3 95% 29.87 0.0 0.01
06 11:55 W 3 2.50 Heavy Drizzle OVC009 62.2 60.8 95% 29.87 0.0
06 11:35 Calm 10.00 Overcast OVC009 62.6 60.6 93% 29.86 0.0
06 11:15 Calm 10.00 Overcast OVC011 62.6 60.4 93% 29.85 0.0
06 10:55 W 3 10.00 Overcast OVC011 62.8 60.4 92% 29.84 0.0 0.01
06 10:35 W 3 10.00 Overcast OVC013 62.6 60.4 93% 29.84 0.0
06 10:15 SW 5 10.00 Rain OVC011 62.8 60.3 92% 29.83 0.0
06 09:55 W 3 10.00 Overcast OVC011 62.8 60.1 91% 29.83 0.0 0.01
06 09:35 W 5 10.00 Overcast OVC013 62.8 59.9 90% 29.83 0.0 0.01
06 09:15 SW 5 10.00 Overcast BKN013 BKN031 OVC060 62.8 59.9 90% 29.82 0.0 0.01
06 08:55 SW 7 10.00 Overcast SCT015 OVC060 62.4 59.9 92% 29.81 0.0
06 08:35 SW 6 10.00 Overcast SCT013 BKN060 OVC085 61 59.4 94% 29.8 0.0
06 08:15 SW 6 10.00 Overcast BKN085 OVC100 60.6 58.6 93% 29.8 0.0
06 07:55 SW 7 10.00 Light Rain OVC100 59.9 58.6 63 57.4 96% 29.8 0.0 0.28
06 07:35 SW 5 10.00 Light Drizzle SCT029 BKN100 OVC120 59.2 58.1 96% 29.8 0.0
06 06:55 NW 6 G 17 5.00 Light Rain SCT010 BKN026 OVC034 59.7 57.6 93% 29.8 0.0 0.08
06 06:35 SW 7 10.00 Light Rain SCT033 BKN040 OVC070 60.1 56.8 89% 29.76 0.0 0.01
06 06:15 S 8 10.00 Overcast BKN043 BKN050 OVC070 60.3 56.7 88% 29.75 0.0
06 05:55 S 7 10.00 Overcast BKN045 OVC055 59.9 56.7 89% 29.75 0.0 0.04
Date Time (edt) Wind (mph) Vis. (mi.) Weather Sky Cond. Air Dwpt Max. Min. Relative Humidity Wind Chill (°F) Heat Index (°F) altimeter (in) sea level (mb) 1 hr 3 hr 6 hr
6 hour
Temperature (ºF) Pressure Precipitation (in)